createdAt,value
2018-02-27T00:01:30.390Z,99307.86
2018-02-27T00:04:01.825Z,99313.98
2018-02-27T00:06:33.913Z,99305.47
2018-02-27T00:09:06.537Z,99306.32
2018-02-27T00:11:37.700Z,99308.83
2018-02-27T00:14:09.125Z,99302.91
2018-02-27T00:16:41.710Z,99313.58
2018-02-27T00:19:13.709Z,99308.34
2018-02-27T00:21:45.804Z,99316.53
2018-02-27T00:24:18.116Z,99313.20
2018-02-27T00:26:50.084Z,99317.88
2018-02-27T00:29:21.676Z,99317.45
2018-02-27T00:31:53.040Z,99319.41
2018-02-27T00:34:24.814Z,99321.28
2018-02-27T00:36:57.480Z,99317.30
2018-02-27T00:39:30.795Z,99322.05
2018-02-27T00:42:01.909Z,99316.05
2018-02-27T00:44:33.719Z,99321.78
2018-02-27T00:47:05.568Z,99317.88
2018-02-27T00:49:37.456Z,99317.41
2018-02-27T00:52:08.969Z,99313.47
2018-02-27T00:54:40.078Z,99320.36
2018-02-27T00:57:12.349Z,99306.25
2018-02-27T00:59:43.738Z,99315.30
2018-02-27T01:02:15.220Z,99301.06
2018-02-27T01:04:46.912Z,99303.20
2018-02-27T01:07:18.806Z,99301.11
2018-02-27T01:09:50.553Z,99303.67
2018-02-27T01:12:22.137Z,99298.09
2018-02-27T01:14:54.292Z,99293.02
2018-02-27T01:17:25.925Z,99291.13
2018-02-27T01:19:58.896Z,99290.72
2018-02-27T01:22:30.413Z,99293.32
2018-02-27T01:25:02.226Z,99294.61
2018-02-27T01:27:33.988Z,99287.44
2018-02-27T01:30:05.881Z,99286.14
2018-02-27T01:32:37.493Z,99281.81
2018-02-27T01:35:09.145Z,99280.41
2018-02-27T01:37:40.480Z,99280.00
2018-02-27T01:40:12.336Z,99279.52
2018-02-27T01:42:44.112Z,99270.69
2018-02-27T01:45:16.126Z,99277.19
2018-02-27T01:47:47.650Z,99279.45
2018-02-27T01:50:19.472Z,99274.92
2018-02-27T01:52:51.326Z,99270.92
2018-02-27T01:55:23.638Z,99275.20
2018-02-27T01:57:54.994Z,99267.17
2018-02-27T02:00:26.537Z,99269.73
2018-02-27T02:02:58.717Z,99268.38
2018-02-27T02:05:30.769Z,99258.39
2018-02-27T02:08:02.393Z,99264.82
2018-02-27T02:10:34.253Z,99263.30
2018-02-27T02:13:06.060Z,99261.95
2018-02-27T02:15:37.943Z,99263.49
2018-02-27T02:18:09.698Z,99255.39
2018-02-27T02:20:41.508Z,99261.39
2018-02-27T02:23:13.120Z,99256.98
2018-02-27T02:25:44.914Z,99256.84
2018-02-27T02:28:16.524Z,99255.14
2018-02-27T02:30:47.912Z,99250.31
2018-02-27T02:33:19.329Z,99254.17
2018-02-27T02:35:50.834Z,99245.29
2018-02-27T02:38:22.455Z,99249.03
2018-02-27T02:40:54.012Z,99246.89
2018-02-27T02:43:25.777Z,99247.00
2018-02-27T02:45:58.525Z,99242.45
2018-02-27T02:48:30.182Z,99251.16
2018-02-27T02:51:01.967Z,99244.16
2018-02-27T02:53:33.981Z,99249.36
2018-02-27T02:56:05.047Z,99245.23
2018-02-27T02:58:36.523Z,99241.86
2018-02-27T03:01:08.593Z,99247.20
2018-02-27T03:03:40.989Z,99249.28
2018-02-27T03:06:12.433Z,99250.30
2018-02-27T03:08:44.325Z,99247.33
2018-02-27T03:11:16.185Z,99249.31
2018-02-27T03:13:47.405Z,99252.95
2018-02-27T03:16:19.170Z,99243.55
2018-02-27T03:18:51.449Z,99243.11
2018-02-27T03:21:23.313Z,99238.83
2018-02-27T03:23:54.710Z,99240.97
2018-02-27T03:26:26.513Z,99243.28
2018-02-27T03:28:58.656Z,99234.10
2018-02-27T03:31:30.446Z,99242.72
2018-02-27T03:34:01.580Z,99239.38
2018-02-27T03:36:33.294Z,99242.34
2018-02-27T03:39:05.635Z,99240.44
2018-02-27T03:41:37.077Z,99237.25
2018-02-27T03:44:08.181Z,99234.25
2018-02-27T03:46:39.931Z,99235.48
2018-02-27T03:49:11.828Z,99230.52
2018-02-27T03:51:43.144Z,99226.27
2018-02-27T03:54:14.667Z,99224.48
2018-02-27T03:56:46.437Z,99221.80
2018-02-27T03:59:18.055Z,99218.75
2018-02-27T04:01:50.073Z,99224.48
2018-02-27T04:04:22.462Z,99224.31
2018-02-27T04:06:54.017Z,99215.41
2018-02-27T04:09:26.139Z,99221.45
2018-02-27T04:11:58.792Z,99216.23
2018-02-27T04:14:30.297Z,99219.38
2018-02-27T04:17:03.641Z,99220.20
2018-02-27T04:19:35.749Z,99225.34
2018-02-27T04:22:07.429Z,99218.92
2018-02-27T04:24:38.997Z,99220.59
2018-02-27T04:27:10.564Z,99216.61
2018-02-27T04:29:41.913Z,99213.19
2018-02-27T04:32:13.585Z,99217.31
2018-02-27T04:34:45.053Z,99213.78
2018-02-27T04:37:16.642Z,99208.16
2018-02-27T04:39:48.523Z,99201.27
2018-02-27T04:42:20.330Z,99205.95
2018-02-27T04:44:51.791Z,99202.87
2018-02-27T04:47:23.982Z,99199.83
2018-02-27T04:49:55.531Z,99201.80
2018-02-27T04:52:27.121Z,99202.30
2018-02-27T04:54:59.118Z,99207.31
2018-02-27T04:57:31.034Z,99212.33
2018-02-27T05:00:03.518Z,99212.64
2018-02-27T05:02:35.385Z,99204.25
2018-02-27T05:05:07.582Z,99207.27
2018-02-27T05:07:39.248Z,99206.40
2018-02-27T05:10:11.101Z,99213.46
2018-02-27T05:12:43.367Z,99204.05
2018-02-27T05:15:15.317Z,99210.00
2018-02-27T05:17:47.214Z,99206.09
2018-02-27T05:20:18.941Z,99197.95
2018-02-27T05:22:50.739Z,99190.84
2018-02-27T05:25:22.721Z,99186.31
2018-02-27T05:27:54.549Z,99187.11
2018-02-27T05:30:26.537Z,99185.37
2018-02-27T05:32:58.976Z,99193.11
2018-02-27T05:35:30.629Z,99181.30
2018-02-27T05:38:03.361Z,99187.36
2018-02-27T05:40:34.453Z,99185.88
2018-02-27T05:43:06.053Z,99189.13
2018-02-27T05:45:38.340Z,99191.69
2018-02-27T05:48:10.455Z,99187.47
2018-02-27T05:50:42.249Z,99194.80
2018-02-27T05:53:13.378Z,99195.33
2018-02-27T05:55:44.525Z,99197.34
2018-02-27T05:58:16.185Z,99194.05
2018-02-27T06:00:48.740Z,99195.77
2018-02-27T06:03:19.925Z,99197.55
2018-02-27T06:05:51.262Z,99194.55
2018-02-27T06:08:22.367Z,99197.53
2018-02-27T06:10:54.039Z,99199.39
2018-02-27T06:13:25.180Z,99200.09
2018-02-27T06:15:56.289Z,99205.55
2018-02-27T06:18:27.930Z,99207.95
2018-02-27T06:21:00.074Z,99203.84
2018-02-27T06:23:31.771Z,99199.62
2018-02-27T06:26:03.921Z,99204.75
2018-02-27T06:28:35.215Z,99208.41
2018-02-27T06:31:06.900Z,99199.05
2018-02-27T06:33:37.990Z,99200.63
2018-02-27T06:36:09.109Z,99202.13
2018-02-27T06:38:40.886Z,99207.78
2018-02-27T06:41:12.697Z,99205.95
2018-02-27T06:43:44.105Z,99205.89
2018-02-27T06:46:15.741Z,99208.24
2018-02-27T06:48:46.889Z,99199.73
2018-02-27T06:51:18.036Z,99195.89
2018-02-27T06:53:49.513Z,99202.34
2018-02-27T06:56:21.005Z,99197.08
2018-02-27T06:58:52.674Z,99195.77
2018-02-27T07:01:23.827Z,99199.02
2018-02-27T07:03:55.445Z,99199.20
2018-02-27T07:06:27.090Z,99201.95
2018-02-27T07:08:58.838Z,99193.59
2018-02-27T07:11:30.069Z,99197.27
2018-02-27T07:14:03.120Z,99194.52
2018-02-27T07:16:34.759Z,99195.38
2018-02-27T07:19:05.917Z,99200.69
2018-02-27T07:21:37.290Z,99206.39
2018-02-27T07:24:08.918Z,99197.42
2018-02-27T07:26:39.977Z,99203.09
2018-02-27T07:29:12.214Z,99199.55
2018-02-27T07:31:43.805Z,99197.35
2018-02-27T07:34:15.444Z,99204.13
2018-02-27T07:36:47.254Z,99203.00
2018-02-27T07:39:18.996Z,99204.39
2018-02-27T07:41:51.197Z,99203.30
2018-02-27T07:44:22.500Z,99204.75
2018-02-27T07:46:53.606Z,99196.93
2018-02-27T07:49:24.936Z,99202.88
2018-02-27T07:51:56.636Z,99198.63
2018-02-27T07:54:28.129Z,99197.55
2018-02-27T07:56:59.291Z,99194.87
2018-02-27T07:59:30.425Z,99194.78
2018-02-27T08:02:03.466Z,99197.00
2018-02-27T08:04:34.550Z,99197.86
2018-02-27T08:07:06.584Z,99200.57
2018-02-27T08:09:38.665Z,99201.11
2018-02-27T08:12:10.545Z,99202.02
2018-02-27T08:14:41.950Z,99199.29
2018-02-27T08:17:13.130Z,99196.29
2018-02-27T08:19:44.828Z,99195.15
2018-02-27T08:22:16.674Z,99185.75
2018-02-27T08:24:47.726Z,99188.74
2018-02-27T08:27:19.285Z,99183.58
2018-02-27T08:29:51.364Z,99185.25
2018-02-27T08:32:22.585Z,99175.84
2018-02-27T08:34:54.057Z,99174.99
2018-02-27T08:37:25.135Z,99170.28
2018-02-27T08:39:57.236Z,99167.30
2018-02-27T08:42:28.654Z,99163.84
2018-02-27T08:45:01.514Z,99164.69
2018-02-27T08:47:32.852Z,99163.28
2018-02-27T08:50:04.422Z,99167.23
2018-02-27T08:52:35.949Z,99172.40
2018-02-27T08:55:07.889Z,99165.56
2018-02-27T08:57:39.029Z,99169.40
2018-02-27T09:00:10.153Z,99162.48
2018-02-27T09:02:41.636Z,99165.45
2018-02-27T09:05:13.131Z,99156.88
2018-02-27T09:07:44.510Z,99166.69
2018-02-27T09:10:16.656Z,99154.09
2018-02-27T09:12:48.332Z,99148.19
2018-02-27T09:15:19.956Z,99151.18
2018-02-27T09:17:51.628Z,99145.17
2018-02-27T09:20:23.242Z,99145.06
2018-02-27T09:22:55.197Z,99138.83
2018-02-27T09:25:26.319Z,99138.32
2018-02-27T09:27:59.129Z,99137.70
2018-02-27T09:30:30.878Z,99135.34
2018-02-27T09:33:03.071Z,99126.81
2018-02-27T09:35:34.602Z,99129.66
2018-02-27T09:38:05.763Z,99132.91
2018-02-27T09:40:36.860Z,99127.81
2018-02-27T09:43:08.438Z,99126.16
2018-02-27T09:45:39.837Z,99126.38
2018-02-27T09:48:11.007Z,99130.48
2018-02-27T09:50:42.436Z,99129.29
2018-02-27T09:53:14.194Z,99122.63
2018-02-27T09:55:46.557Z,99123.86
2018-02-27T09:58:18.069Z,99125.25
2018-02-27T10:00:50.286Z,99127.20
2018-02-27T10:03:21.460Z,99130.70
2018-02-27T10:05:52.918Z,99126.88
2018-02-27T10:08:24.701Z,99116.72
2018-02-27T10:10:55.893Z,99123.80
2018-02-27T10:13:27.678Z,99112.73
2018-02-27T10:15:58.885Z,99113.34
2018-02-27T10:18:30.079Z,99118.83
2018-02-27T10:21:03.571Z,99115.59
2018-02-27T10:23:34.678Z,99117.43
2018-02-27T10:26:05.887Z,99118.53
2018-02-27T10:28:37.142Z,99112.03
2018-02-27T10:31:08.306Z,99116.20
2018-02-27T10:33:40.003Z,99116.45
2018-02-27T10:36:11.200Z,99118.98
2018-02-27T10:38:42.363Z,99115.11
2018-02-27T10:41:14.374Z,99110.11
2018-02-27T10:43:45.569Z,99107.05
2018-02-27T10:46:16.888Z,99098.18
2018-02-27T10:48:48.002Z,99104.24
2018-02-27T10:51:19.202Z,99091.94
2018-02-27T10:53:50.632Z,99098.58
2018-02-27T10:56:22.709Z,99096.09
2018-02-27T10:58:53.885Z,99096.09
2018-02-27T11:01:25.801Z,99092.06
2018-02-27T11:03:59.038Z,99093.30
2018-02-27T11:06:30.543Z,99087.75
2018-02-27T11:09:01.765Z,99090.66
2018-02-27T11:11:34.583Z,99089.34
2018-02-27T11:14:06.507Z,99084.03
2018-02-27T11:16:37.987Z,99086.13
2018-02-27T11:19:10.367Z,99079.21
2018-02-27T11:21:41.483Z,99073.91
2018-02-27T11:24:12.933Z,99074.59
2018-02-27T11:26:44.119Z,99071.77
2018-02-27T11:29:15.242Z,99069.75
2018-02-27T11:31:46.702Z,99065.08
2018-02-27T11:34:18.249Z,99063.31
2018-02-27T11:36:49.412Z,99064.11
2018-02-27T11:39:21.101Z,99061.45
2018-02-27T11:41:52.869Z,99062.63
2018-02-27T11:44:24.891Z,99057.34
2018-02-27T11:46:56.018Z,99056.73
2018-02-27T11:49:27.141Z,99050.64
2018-02-27T11:52:00.468Z,99047.30
2018-02-27T11:54:31.987Z,99050.67
2018-02-27T11:57:05.098Z,99034.84
2018-02-27T11:59:36.589Z,99041.77
2018-02-27T12:02:07.755Z,99040.06
2018-02-27T12:04:39.073Z,99037.97
2018-02-27T12:07:12.662Z,99033.48
2018-02-27T12:09:43.849Z,99037.38
2018-02-27T12:12:15.007Z,99028.62
2018-02-27T12:14:46.839Z,99020.40
2018-02-27T12:17:18.065Z,99029.26
2018-02-27T12:19:49.181Z,99040.07
2018-02-27T12:22:20.597Z,99024.11
2018-02-27T12:24:52.636Z,99032.43
2018-02-27T12:27:23.733Z,99023.77
2018-02-27T12:29:55.322Z,99019.13
2018-02-27T12:32:27.023Z,99024.38
2018-02-27T12:35:01.287Z,99017.89
2018-02-27T12:37:32.091Z,99019.66
2018-02-27T12:40:03.156Z,99019.80
2018-02-27T12:42:34.213Z,99017.87
2018-02-27T12:45:05.505Z,99011.98
2018-02-27T12:47:36.664Z,99000.94
2018-02-27T12:50:07.347Z,99010.54
2018-02-27T12:52:38.541Z,99006.98
2018-02-27T12:55:11.093Z,99005.92
2018-02-27T12:57:42.829Z,99005.13
2018-02-27T13:00:13.743Z,99006.56
2018-02-27T13:02:45.140Z,98998.18
2018-02-27T13:05:15.974Z,98999.92
2018-02-27T13:07:47.142Z,98992.02
2018-02-27T13:10:19.050Z,98989.92
2018-02-27T13:12:49.934Z,98988.02
2018-02-27T13:15:21.153Z,98987.39
2018-02-27T13:18:25.686Z,98980.95
2018-02-27T13:21:13.346Z,98979.21
2018-02-27T13:23:44.656Z,98984.66
2018-02-27T13:26:16.010Z,98986.17
2018-02-27T13:28:47.117Z,98981.16
2018-02-27T13:31:17.937Z,98982.31
2018-02-27T13:33:49.405Z,98975.91
2018-02-27T13:36:20.541Z,98980.17
2018-02-27T13:38:51.741Z,98972.20
2018-02-27T13:41:24.827Z,98968.19
2018-02-27T13:43:55.941Z,98962.03
2018-02-27T13:46:27.418Z,98966.75
2018-02-27T13:49:04.001Z,98977.20
2018-02-27T13:51:30.990Z,98971.09
2018-02-27T13:54:02.793Z,98970.07
2018-02-27T13:56:33.958Z,98964.16
2018-02-27T13:59:05.445Z,98964.84
2018-02-27T14:01:36.555Z,98972.34
2018-02-27T14:04:07.689Z,98965.12
2018-02-27T14:06:39.125Z,98966.52
2018-02-27T14:09:10.228Z,98958.88
2018-02-27T14:11:41.843Z,98964.67
2018-02-27T14:14:14.612Z,98956.86
2018-02-27T14:16:46.146Z,98960.78
2018-02-27T14:19:18.312Z,98956.78
2018-02-27T14:21:49.446Z,98962.48
2018-02-27T14:24:20.967Z,98956.49
2018-02-27T14:26:52.009Z,98948.50
2018-02-27T14:29:23.120Z,98950.58
2018-02-27T14:31:54.302Z,98955.11
2018-02-27T14:34:25.801Z,98953.05
2018-02-27T14:36:57.092Z,98951.12
2018-02-27T14:39:28.277Z,98946.23
2018-02-27T14:41:59.329Z,98953.25
2018-02-27T14:44:30.393Z,98952.91
2018-02-27T14:47:01.518Z,98949.98
2018-02-27T14:49:32.633Z,98949.93
2018-02-27T14:52:04.101Z,98949.34
2018-02-27T14:54:38.877Z,98951.50
2018-02-27T14:57:09.994Z,98948.41
2018-02-27T14:59:41.181Z,98950.85
2018-02-27T15:02:13.416Z,98948.22
2018-02-27T15:04:44.550Z,98949.27
2018-02-27T15:07:16.818Z,98948.87
2018-02-27T15:09:48.181Z,98950.05
2018-02-27T15:12:19.486Z,98942.68
2018-02-27T15:14:51.050Z,98940.06
2018-02-27T15:17:23.185Z,98946.88
2018-02-27T15:19:55.261Z,98941.67
2018-02-27T15:22:26.887Z,98944.70
2018-02-27T15:24:57.969Z,98936.36
2018-02-27T15:27:29.187Z,98939.03
2018-02-27T15:30:00.644Z,98938.61
2018-02-27T15:32:31.780Z,98941.67
2018-02-27T15:35:03.005Z,98933.48
2018-02-27T15:37:35.391Z,98940.32
2018-02-27T15:40:07.674Z,98935.04
2018-02-27T15:42:39.383Z,98941.92
2018-02-27T15:45:10.589Z,98939.36
2018-02-27T15:47:41.669Z,98949.71
2018-02-27T15:50:14.178Z,98949.58
2018-02-27T15:52:45.321Z,98953.23
2018-02-27T15:55:16.877Z,98941.11
2018-02-27T15:57:48.237Z,98949.26
2018-02-27T16:00:19.378Z,98949.52
2018-02-27T16:02:50.829Z,98947.11
2018-02-27T16:05:21.912Z,98944.61
2018-02-27T16:07:53.081Z,98943.02
2018-02-27T16:10:24.505Z,98949.05
2018-02-27T16:12:55.558Z,98947.80
2018-02-27T16:15:26.723Z,98946.11
2018-02-27T16:17:58.101Z,98945.83
2018-02-27T16:20:29.200Z,98939.88
2018-02-27T16:23:00.656Z,98940.54
2018-02-27T16:25:31.742Z,98937.81
2018-02-27T16:28:02.835Z,98943.98
2018-02-27T16:30:34.263Z,98941.06
2018-02-27T16:33:05.476Z,98946.02
2018-02-27T16:35:36.593Z,98948.33
2018-02-27T16:38:08.015Z,98944.23
2018-02-27T16:40:39.082Z,98946.98
2018-02-27T16:43:10.183Z,98943.00
2018-02-27T16:45:41.262Z,98946.39
2018-02-27T16:48:12.673Z,98945.27
2018-02-27T16:50:43.863Z,98944.47
2018-02-27T16:53:15.009Z,98947.08
2018-02-27T16:55:46.489Z,98944.48
2018-02-27T16:58:17.556Z,98949.67
2018-02-27T17:00:49.915Z,98954.71
2018-02-27T17:03:21.309Z,98960.48
2018-02-27T17:05:53.382Z,98955.90
2018-02-27T17:08:25.559Z,98962.85
2018-02-27T17:10:56.674Z,98960.56
2018-02-27T17:13:27.817Z,98968.77
2018-02-27T17:15:59.267Z,98969.40
2018-02-27T17:18:30.424Z,98971.35
2018-02-27T17:21:01.576Z,98980.95
2018-02-27T17:23:32.994Z,98974.38
2018-02-27T17:26:04.077Z,98978.78
2018-02-27T17:28:36.165Z,98973.24
2018-02-27T17:31:09.574Z,98974.62
2018-02-27T17:33:40.616Z,98975.88
2018-02-27T17:36:12.021Z,98975.06
2018-02-27T17:38:43.158Z,98965.47
2018-02-27T17:41:14.304Z,98969.06
2018-02-27T17:43:45.783Z,98973.59
2018-02-27T17:46:17.391Z,98969.66
2018-02-27T17:48:48.747Z,98971.22
2018-02-27T17:51:19.822Z,98973.25
2018-02-27T17:53:50.937Z,98970.63
2018-02-27T17:56:22.411Z,98974.50
2018-02-27T17:58:53.585Z,98968.56
2018-02-27T18:01:24.714Z,98969.02
2018-02-27T18:03:56.223Z,98971.02
2018-02-27T18:06:27.564Z,98967.20
2018-02-27T18:08:59.198Z,98973.79
2018-02-27T18:11:30.921Z,98970.45
2018-02-27T18:14:03.034Z,98975.34
2018-02-27T18:16:34.169Z,98980.53
2018-02-27T18:19:05.296Z,98976.52
2018-02-27T18:21:36.756Z,98972.72
2018-02-27T18:24:07.844Z,98979.45
2018-02-27T18:26:39.590Z,98975.48
2018-02-27T18:29:12.181Z,98978.39
2018-02-27T18:31:43.318Z,98976.44
2018-02-27T18:34:14.424Z,98981.56
2018-02-27T18:36:46.616Z,98976.64
2018-02-27T18:39:18.062Z,98985.08
2018-02-27T18:41:49.647Z,98978.34
2018-02-27T18:44:21.067Z,98976.94
2018-02-27T18:46:52.231Z,98985.82
2018-02-27T18:49:23.658Z,98977.97
2018-02-27T18:51:54.832Z,98977.36
2018-02-27T18:54:25.989Z,98977.05
2018-02-27T18:56:57.387Z,98978.94
2018-02-27T18:59:28.496Z,98983.84
2018-02-27T19:02:01.353Z,98983.66
2018-02-27T19:04:32.793Z,98989.23
2018-02-27T19:07:03.928Z,98988.11
2018-02-27T19:09:35.330Z,98993.75
2018-02-27T19:12:07.302Z,99002.73
2018-02-27T19:14:38.358Z,99001.67
2018-02-27T19:17:09.902Z,99004.56
2018-02-27T19:19:41.031Z,99009.86
2018-02-27T19:22:12.149Z,99009.45
2018-02-27T19:24:44.479Z,99019.04
2018-02-27T19:27:15.640Z,99019.55
2018-02-27T19:29:47.063Z,99015.45
2018-02-27T19:32:18.229Z,99019.14
2018-02-27T19:34:49.264Z,99021.58
2018-02-27T19:37:21.762Z,99024.21
2018-02-27T19:39:52.930Z,99032.16
2018-02-27T19:42:24.050Z,99025.69
2018-02-27T19:44:55.497Z,99031.48
2018-02-27T19:47:26.658Z,99035.19
2018-02-27T19:49:57.805Z,99039.25
2018-02-27T19:52:29.238Z,99036.57
2018-02-27T19:55:00.304Z,99041.70
2018-02-27T19:57:31.498Z,99037.03
2018-02-27T20:00:02.887Z,99037.86
2018-02-27T20:02:34.772Z,99039.86
2018-02-27T20:05:05.932Z,99034.18
2018-02-27T20:07:37.385Z,99037.31
2018-02-27T20:10:09.738Z,99039.96
2018-02-27T20:12:41.275Z,99040.16
2018-02-27T20:15:12.556Z,99041.34
2018-02-27T20:17:47.898Z,99041.50
2018-02-27T20:20:20.147Z,99043.44
2018-02-27T20:22:55.029Z,99043.42
2018-02-27T20:25:40.473Z,99040.95
2018-02-27T20:28:12.129Z,99050.62
2018-02-27T20:30:43.458Z,99045.53
2018-02-27T20:33:14.867Z,99053.38
2018-02-27T20:35:45.934Z,99050.45
2018-02-27T20:38:17.454Z,99050.23
2018-02-27T20:40:49.518Z,99048.41
2018-02-27T20:43:20.754Z,99051.95
2018-02-27T20:45:52.054Z,99051.78
2018-02-27T20:48:23.277Z,99056.04
2018-02-27T20:50:54.706Z,99054.44
2018-02-27T20:53:27.029Z,99051.81
2018-02-27T20:55:58.237Z,99048.95
2018-02-27T20:58:29.775Z,99052.25
2018-02-27T21:01:01.134Z,99047.95
2018-02-27T21:03:32.246Z,99047.20
2018-02-27T21:06:03.825Z,99052.72
2018-02-27T21:08:35.243Z,99054.30
2018-02-27T21:11:06.404Z,99048.70
2018-02-27T21:13:38.342Z,99058.36
2018-02-27T21:16:09.531Z,99058.70
2018-02-27T21:18:41.021Z,99059.48
2018-02-27T21:21:12.512Z,99062.36
2018-02-27T21:23:43.662Z,99063.25
2018-02-27T21:26:14.834Z,99065.70
2018-02-27T21:28:47.287Z,99071.75
2018-02-27T21:31:18.410Z,99072.41
2018-02-27T21:33:49.753Z,99072.76
2018-02-27T21:36:20.846Z,99070.44
2018-02-27T21:38:52.035Z,99075.97
2018-02-27T21:41:23.678Z,99078.09
2018-02-27T21:43:57.781Z,99079.83
2018-02-27T21:46:28.861Z,99078.58
2018-02-27T21:49:00.398Z,99079.34
2018-02-27T21:51:32.391Z,99074.19
2018-02-27T21:54:03.565Z,99081.97
2018-02-27T21:56:39.837Z,99081.88
2018-02-27T21:59:10.979Z,99087.27
2018-02-27T22:01:42.398Z,99090.45
2018-02-27T22:04:13.538Z,99095.17
2018-02-27T22:06:44.846Z,99095.19
2018-02-27T22:09:16.873Z,99091.43
2018-02-27T22:11:48.649Z,99095.86
2018-02-27T22:14:19.994Z,99087.91
2018-02-27T22:16:52.261Z,99091.25
2018-02-27T22:19:23.986Z,99098.20
2018-02-27T22:21:55.889Z,99099.91
2018-02-27T22:24:27.755Z,99103.27
2018-02-27T22:26:59.520Z,99104.99
2018-02-27T22:29:31.021Z,99096.37
2018-02-27T22:32:02.907Z,99104.66
2018-02-27T22:34:35.099Z,99107.23
2018-02-27T22:37:06.302Z,99110.97
2018-02-27T22:39:37.820Z,99111.71
2018-02-27T22:42:08.940Z,99110.51
2018-02-27T22:44:40.102Z,99113.20
2018-02-27T22:47:12.000Z,99111.96
2018-02-27T22:49:43.112Z,99114.54
2018-02-27T22:52:14.218Z,99117.00
2018-02-27T22:54:46.264Z,99115.61
2018-02-27T22:57:18.023Z,99110.08
2018-02-27T22:59:49.445Z,99111.26
2018-02-27T23:02:21.119Z,99112.66
2018-02-27T23:04:52.269Z,99110.08
2018-02-27T23:07:24.229Z,99113.34
2018-02-27T23:09:55.772Z,99111.52
2018-02-27T23:12:26.960Z,99114.95
2018-02-27T23:14:59.462Z,99117.51
2018-02-27T23:17:33.821Z,99123.24
2018-02-27T23:20:05.639Z,99116.95
2018-02-27T23:22:37.394Z,99117.02
2018-02-27T23:25:40.449Z,99117.95
2018-02-27T23:28:17.388Z,99122.22
2018-02-27T23:30:49.509Z,99125.69
2018-02-27T23:33:34.826Z,99122.64
2018-02-27T23:36:06.425Z,99125.68
2018-02-27T23:38:38.333Z,99126.54
2018-02-27T23:41:09.677Z,99121.77
2018-02-27T23:43:40.766Z,99129.40
2018-02-27T23:46:12.460Z,99128.55
2018-02-27T23:48:45.278Z,99127.38
2018-02-27T23:51:17.186Z,99124.84
2018-02-27T23:53:48.589Z,99123.88
2018-02-27T23:56:23.818Z,99136.28
2018-02-27T23:58:55.930Z,99139.22
